Terminal Aerodrome Forecast
Issued by NWS

Home | Current Version | Previous Version | Text Only | Print | Product List | Glossary On
Versions: 1 2 3 4 5 6 7 8 9 10 11 12 13 14 15 16 17
587
FTUS41 KBGM 181736
TAFRME
TAF
KRME 181736Z 1818/1918 28008KT P6SM SCT025 OVC035
      TEMPO 1820/1824 3SM -SHSN OVC025
     FM190000 27005KT P6SM SCT015 OVC025
     FM190600 VRB03KT P6SM SCT025 OVC035
     FM191300 26005KT P6SM OVC025=

USA.gov is the U.S. government's official web portal to all federal, state and local government web resources and services.